createdAt,value
2023-01-20T00:04:39.457Z,36.10
2023-01-20T00:14:44.014Z,38.15
2023-01-20T00:19:46.397Z,35.57
2023-01-20T00:24:48.764Z,37.50
2023-01-20T00:29:51.204Z,35.63
2023-01-20T00:34:53.677Z,31.25
2023-01-20T00:39:57.434Z,32.70
2023-01-20T00:44:59.790Z,39.25
2023-01-20T00:50:03.453Z,37.30
2023-01-20T00:55:06.383Z,30.10
2023-01-20T01:00:09.377Z,36.40
2023-01-20T01:05:13.177Z,36.33
2023-01-20T01:10:15.964Z,33.03
2023-01-20T01:15:18.598Z,26.47
2023-01-20T01:20:21.232Z,31.67
2023-01-20T01:25:23.808Z,28.67
2023-01-20T01:30:26.422Z,35.45
2023-01-20T01:35:28.922Z,32.40
2023-01-20T01:40:35.246Z,34.78
2023-01-20T01:45:38.686Z,34.40
2023-01-20T01:50:50.140Z,34.65
2023-01-20T01:55:57.163Z,32.88
2023-01-20T02:00:59.719Z,33.05
2023-01-20T02:06:02.606Z,23.80
2023-01-20T02:11:05.430Z,30.27
2023-01-20T02:16:14.559Z,31.93
2023-01-20T02:21:37.373Z,32.03
2023-01-20T02:27:09.153Z,24.10
2023-01-20T02:32:30.098Z,32.15
2023-01-20T02:37:52.072Z,32.20
2023-01-20T02:43:11.202Z,31.80
2023-01-20T02:49:02.745Z,34.70
2023-01-20T02:54:07.576Z,30.80
2023-01-20T02:59:12.592Z,32.75
2023-01-20T03:04:18.240Z,29.90
2023-01-20T03:09:23.931Z,33.63
2023-01-20T03:14:27.558Z,32.22
2023-01-20T03:19:31.088Z,26.85
2023-01-20T03:24:33.661Z,37.65
2023-01-20T03:29:36.159Z,35.73
2023-01-20T03:34:40.103Z,33.88
2023-01-20T03:39:42.544Z,36.53
2023-01-20T03:45:00.176Z,34.67
2023-01-20T03:50:17.590Z,34.88
2023-01-20T03:55:34.495Z,34.10
2023-01-20T04:00:40.715Z,31.73
2023-01-20T04:05:44.666Z,32.45
2023-01-20T04:10:48.700Z,33.20
2023-01-20T04:15:51.233Z,34.67
2023-01-20T04:20:58.187Z,36.97
2023-01-20T04:26:00.524Z,41.33
2023-01-20T04:31:02.955Z,32.67
2023-01-20T04:36:05.472Z,31.77
2023-01-20T04:41:11.379Z,30.88
2023-01-20T04:46:15.080Z,30.00
2023-01-20T04:51:17.702Z,29.98
2023-01-20T04:56:20.110Z,27.15
2023-01-20T05:01:22.679Z,31.85
2023-01-20T05:06:25.108Z,30.53
2023-01-20T05:11:27.559Z,35.28
2023-01-20T05:16:32.176Z,33.65
2023-01-20T05:21:34.551Z,30.70
2023-01-20T05:26:37.167Z,29.47
2023-01-20T05:31:43.613Z,31.25
2023-01-20T05:36:46.256Z,30.33
2023-01-20T05:41:49.444Z,28.85
2023-01-20T05:46:51.961Z,31.70
2023-01-20T05:51:54.284Z,30.48
2023-01-20T05:56:56.685Z,33.60
2023-01-20T06:01:59.089Z,29.23
2023-01-20T06:07:01.419Z,28.73
2023-01-20T06:12:04.169Z,31.17
2023-01-20T06:17:06.507Z,25.63
2023-01-20T06:22:32.402Z,35.33
2023-01-20T06:27:34.825Z,33.70
2023-01-20T06:32:37.413Z,36.90
2023-01-20T06:37:39.807Z,44.10
2023-01-20T06:42:42.197Z,43.75
2023-01-20T06:47:48.811Z,40.83
2023-01-20T06:52:53.619Z,48.72
2023-01-20T06:57:55.982Z,49.92
2023-01-20T07:02:58.301Z,41.78
2023-01-20T07:08:00.721Z,45.25
2023-01-20T07:13:03.091Z,57.67
2023-01-20T07:18:05.387Z,57.55
2023-01-20T07:23:07.973Z,54.08
2023-01-20T07:28:10.266Z,47.83
2023-01-20T07:33:12.563Z,53.65
2023-01-20T07:38:15.015Z,48.88
2023-01-20T07:43:17.649Z,53.42
2023-01-20T07:48:20.223Z,42.40
2023-01-20T07:53:25.026Z,51.88
2023-01-20T07:58:28.644Z,69.65
2023-01-20T08:08:33.655Z,59.33
2023-01-20T08:13:36.344Z,53.05
2023-01-20T08:18:39.560Z,50.80
2023-01-20T08:23:42.101Z,56.47
2023-01-20T08:28:44.431Z,51.50
2023-01-20T08:33:47.785Z,50.13
2023-01-20T08:38:50.518Z,49.67
2023-01-20T08:43:53.047Z,62.97
2023-01-20T08:48:56.288Z,47.45
2023-01-20T08:54:00.339Z,51.55
2023-01-20T08:59:02.990Z,53.10
2023-01-20T09:04:07.261Z,57.92
2023-01-20T09:09:10.424Z,49.30
2023-01-20T09:14:12.837Z,43.70
2023-01-20T09:19:15.650Z,43.57
2023-01-20T09:24:18.437Z,37.95
2023-01-20T09:29:21.255Z,43.57
2023-01-20T09:34:25.550Z,50.37
2023-01-20T09:39:46.761Z,43.08
2023-01-20T09:44:54.905Z,48.40
2023-01-20T09:50:37.662Z,49.60
2023-01-20T09:55:49.244Z,51.85
2023-01-20T10:01:30.933Z,53.83
2023-01-20T10:06:42.983Z,54.75
2023-01-20T10:11:47.349Z,68.47
2023-01-20T10:16:51.315Z,49.67
2023-01-20T10:22:27.354Z,61.58
2023-01-20T10:27:32.268Z,59.15
2023-01-20T10:32:37.194Z,53.28
2023-01-20T10:37:39.855Z,45.00
2023-01-20T10:42:47.456Z,52.95
2023-01-20T10:48:00.453Z,53.00
2023-01-20T10:53:29.430Z,52.28
2023-01-20T10:58:33.888Z,42.40
2023-01-20T11:03:40.137Z,48.20
2023-01-20T11:08:44.344Z,39.72
2023-01-20T11:13:47.308Z,48.95
2023-01-20T11:19:02.180Z,42.53
2023-01-20T11:24:36.413Z,43.35
2023-01-20T11:34:49.290Z,54.03
2023-01-20T11:39:51.685Z,50.13
2023-01-20T11:45:15.207Z,39.63
2023-01-20T11:50:28.513Z,33.10
2023-01-20T11:55:30.851Z,40.35
2023-01-20T12:00:53.519Z,36.95
2023-01-20T12:05:58.148Z,38.55
2023-01-20T12:11:04.389Z,34.75
2023-01-20T12:16:07.280Z,31.15
2023-01-20T12:21:18.393Z,19.58
2023-01-20T12:26:22.589Z,49.72
2023-01-20T12:31:25.388Z,44.30
2023-01-20T12:36:39.807Z,33.23
2023-01-20T12:41:54.414Z,31.50
2023-01-20T12:47:22.714Z,29.48
2023-01-20T12:52:31.180Z,36.00
2023-01-20T12:57:43.449Z,83.70
2023-01-20T13:03:09.042Z,48.85
2023-01-20T13:08:17.987Z,26.88
2023-01-20T13:13:30.254Z,34.55
2023-01-20T13:18:40.204Z,41.47
2023-01-20T13:23:44.659Z,57.63
2023-01-20T13:28:51.931Z,104.10
2023-01-20T13:33:54.379Z,94.40
2023-01-20T13:39:32.936Z,39.67
2023-01-20T13:44:42.185Z,37.85
2023-01-20T13:49:48.908Z,153.48
2023-01-20T13:54:51.320Z,128.70
2023-01-20T13:59:54.720Z,86.88
2023-01-20T14:04:58.919Z,37.40
2023-01-20T14:10:02.038Z,30.55
2023-01-20T14:15:04.674Z,24.60
2023-01-20T14:20:23.701Z,53.10
2023-01-20T14:25:27.103Z,71.97
2023-01-20T14:30:29.828Z,279.60
2023-01-20T14:35:33.995Z,175.30
2023-01-20T14:40:36.498Z,87.93
2023-01-20T14:45:43.511Z,74.75
2023-01-20T14:50:50.841Z,48.97
2023-01-20T14:56:01.359Z,41.25
2023-01-20T15:01:17.881Z,34.90
2023-01-20T15:06:22.364Z,33.92
2023-01-20T15:11:29.153Z,41.33
2023-01-20T15:16:38.720Z,51.17
2023-01-20T15:21:43.448Z,39.38
2023-01-20T15:26:47.122Z,75.85
2023-01-20T15:31:51.319Z,90.70
2023-01-20T15:36:54.951Z,117.13
2023-01-20T15:41:57.911Z,101.30
2023-01-20T15:47:01.051Z,50.53
2023-01-20T15:52:03.528Z,64.18
2023-01-20T15:57:16.356Z,71.63
2023-01-20T16:02:23.476Z,66.22
2023-01-20T16:07:29.154Z,39.40
2023-01-20T16:12:32.138Z,43.40
2023-01-20T16:17:34.679Z,32.42
2023-01-20T16:22:37.264Z,27.70
2023-01-20T16:27:39.590Z,36.00
2023-01-20T16:32:46.232Z,42.38
2023-01-20T16:37:48.686Z,35.88
2023-01-20T16:42:54.691Z,38.72
2023-01-20T16:47:57.413Z,36.47
2023-01-20T16:52:59.818Z,36.87
2023-01-20T16:58:02.360Z,32.85
2023-01-20T17:03:05.048Z,37.03
2023-01-20T17:08:07.647Z,33.33
2023-01-20T17:13:10.111Z,34.85
2023-01-20T17:18:12.758Z,36.63
2023-01-20T17:23:15.067Z,38.53
2023-01-20T17:28:38.288Z,35.95
2023-01-20T17:33:49.008Z,55.50
2023-01-20T17:38:51.953Z,33.88
2023-01-20T17:44:15.561Z,32.15
2023-01-20T17:49:20.252Z,48.40
2023-01-20T17:54:22.560Z,39.97
2023-01-20T17:59:27.149Z,34.75
2023-01-20T18:04:38.670Z,29.40
2023-01-20T18:15:07.140Z,29.50
2023-01-20T18:20:11.175Z,29.85
2023-01-20T18:25:14.647Z,30.38
2023-01-20T18:30:48.256Z,37.80
2023-01-20T18:37:15.363Z,46.95
2023-01-20T18:42:40.705Z,29.05
2023-01-20T18:48:11.895Z,30.75
2023-01-20T18:53:15.691Z,40.75
2023-01-20T18:58:18.632Z,36.65
2023-01-20T19:03:24.362Z,34.40
2023-01-20T19:08:27.203Z,23.95
2023-01-20T19:13:29.842Z,23.73
2023-01-20T19:18:32.211Z,35.40
2023-01-20T19:23:35.116Z,31.17
2023-01-20T19:33:41.001Z,23.98
2023-01-20T19:38:44.339Z,27.63
2023-01-20T19:43:47.728Z,27.95
2023-01-20T19:48:52.501Z,22.30
2023-01-20T19:53:58.190Z,29.92
2023-01-20T19:59:01.163Z,26.90
2023-01-20T20:04:05.923Z,19.95
2023-01-20T20:09:12.217Z,24.98
2023-01-20T20:14:16.659Z,26.92
2023-01-20T20:19:20.089Z,26.33
2023-01-20T20:24:22.790Z,25.42
2023-01-20T20:29:25.175Z,36.95
2023-01-20T20:34:27.492Z,25.27
2023-01-20T20:39:46.351Z,21.92
2023-01-20T20:44:48.792Z,23.40
2023-01-20T20:49:51.173Z,25.95
2023-01-20T20:54:56.210Z,18.95
2023-01-20T20:59:59.780Z,23.10
2023-01-20T21:05:07.689Z,22.45
2023-01-20T21:10:12.147Z,22.02
2023-01-20T21:15:14.593Z,25.35
2023-01-20T21:20:17.438Z,24.10
2023-01-20T21:25:24.131Z,25.83
2023-01-20T21:30:27.053Z,23.30
2023-01-20T21:35:29.491Z,18.20
2023-01-20T21:40:34.572Z,22.25
2023-01-20T21:45:37.066Z,20.88
2023-01-20T21:50:57.827Z,23.17
2023-01-20T21:56:01.261Z,21.70
2023-01-20T22:11:24.983Z,19.38
2023-01-20T22:16:37.967Z,22.13
2023-01-20T22:21:41.920Z,20.67
2023-01-20T22:26:59.175Z,22.45
2023-01-20T22:32:03.402Z,22.42
2023-01-20T22:37:05.820Z,23.63
2023-01-20T22:42:09.972Z,22.40
2023-01-20T22:47:12.537Z,22.17
2023-01-20T22:52:15.003Z,23.73
2023-01-20T22:57:21.035Z,22.35
2023-01-20T23:02:23.435Z,23.02
2023-01-20T23:07:26.005Z,23.38
2023-01-20T23:12:28.486Z,22.08
2023-01-20T23:17:45.666Z,26.07
2023-01-20T23:23:02.565Z,23.13
2023-01-20T23:28:05.689Z,23.45
2023-01-20T23:33:13.061Z,26.25
2023-01-20T23:38:43.597Z,27.33
2023-01-20T23:43:49.427Z,24.65
2023-01-20T23:54:25.086Z,22.85
2023-01-20T23:59:36.325Z,21.85
